createdAt,value
2023-03-02T00:01:54.594Z,19.60
2023-03-02T00:08:16.484Z,14.80
2023-03-02T00:10:45.535Z,18.00
2023-03-02T00:13:16.050Z,14.60
2023-03-02T00:15:44.529Z,14.90
2023-03-02T00:18:13.324Z,11.50
2023-03-02T00:20:42.920Z,22.20
2023-03-02T00:23:11.502Z,15.10
2023-03-02T00:25:40.340Z,16.70
2023-03-02T00:28:08.938Z,16.40
2023-03-02T00:30:38.499Z,12.40
2023-03-02T00:33:06.615Z,14.80
2023-03-02T00:35:39.247Z,19.10
2023-03-02T00:38:07.781Z,18.80
2023-03-02T00:40:36.208Z,12.30
2023-03-02T00:43:06.597Z,12.50
2023-03-02T00:45:37.134Z,10.30
2023-03-02T00:48:05.372Z,11.70
2023-03-02T00:50:33.626Z,11.30
2023-03-02T00:53:04.642Z,13.00
2023-03-02T00:55:33.323Z,15.50
2023-03-02T00:58:01.511Z,12.30
2023-03-02T01:00:34.451Z,18.00
2023-03-02T01:03:05.687Z,12.10
2023-03-02T01:05:37.567Z,10.10
2023-03-02T01:08:06.734Z,14.20
2023-03-02T01:10:34.917Z,9.70
2023-03-02T01:13:04.104Z,17.40
2023-03-02T01:15:33.767Z,15.40
2023-03-02T01:18:02.415Z,11.80
2023-03-02T01:20:31.629Z,12.20
2023-03-02T01:22:59.973Z,17.30
2023-03-02T01:25:28.735Z,13.70
2023-03-02T01:27:57.227Z,12.70
2023-03-02T01:30:26.620Z,11.50
2023-03-02T01:32:55.491Z,13.40
2023-03-02T01:35:23.848Z,9.60
2023-03-02T01:37:52.404Z,11.50
2023-03-02T01:40:20.823Z,18.60
2023-03-02T01:42:57.470Z,13.30
2023-03-02T01:45:53.609Z,16.10
2023-03-02T01:48:37.567Z,13.50
2023-03-02T01:51:05.870Z,12.70
2023-03-02T01:53:36.327Z,13.30
2023-03-02T01:56:05.827Z,14.00
2023-03-02T01:58:36.600Z,11.40
2023-03-02T02:01:05.450Z,12.80
2023-03-02T02:03:33.871Z,13.40
2023-03-02T02:06:37.282Z,14.70
2023-03-02T02:09:08.440Z,16.80
2023-03-02T02:11:38.170Z,14.70
2023-03-02T02:14:06.529Z,16.80
2023-03-02T02:16:39.457Z,15.70
2023-03-02T02:19:18.672Z,13.60
2023-03-02T02:21:46.948Z,16.50
2023-03-02T02:24:22.705Z,14.30
2023-03-02T02:26:55.254Z,14.80
2023-03-02T02:29:30.461Z,18.40
2023-03-02T02:32:13.053Z,13.70
2023-03-02T02:35:01.414Z,12.10
2023-03-02T02:37:42.656Z,13.70
2023-03-02T02:40:17.597Z,14.40
2023-03-02T02:42:46.943Z,16.50
2023-03-02T02:45:18.629Z,19.60
2023-03-02T02:47:46.870Z,18.10
2023-03-02T02:50:23.493Z,13.10
2023-03-02T02:52:55.797Z,17.20
2023-03-02T02:55:24.032Z,17.20
2023-03-02T02:57:54.928Z,12.90
2023-03-02T03:00:25.318Z,13.60
2023-03-02T03:03:00.144Z,18.90
2023-03-02T03:05:28.394Z,18.10
2023-03-02T03:08:09.546Z,17.00
2023-03-02T03:10:40.387Z,16.80
2023-03-02T03:13:08.995Z,13.60
2023-03-02T03:15:37.601Z,13.40
2023-03-02T03:18:05.772Z,14.50
2023-03-02T03:20:34.197Z,20.50
2023-03-02T03:23:02.456Z,13.10
2023-03-02T03:25:32.243Z,13.10
2023-03-02T03:28:00.969Z,16.80
2023-03-02T03:30:29.283Z,13.50
2023-03-02T03:32:57.834Z,15.80
2023-03-02T03:35:26.979Z,11.30
2023-03-02T03:37:55.279Z,16.40
2023-03-02T03:40:27.558Z,14.10
2023-03-02T03:42:56.658Z,13.10
2023-03-02T03:45:25.439Z,14.00
2023-03-02T03:47:53.672Z,10.00
2023-03-02T03:50:21.928Z,14.80
2023-03-02T03:52:50.541Z,13.70
2023-03-02T03:55:23.465Z,9.40
2023-03-02T03:57:52.142Z,12.20
2023-03-02T04:00:21.021Z,11.80
2023-03-02T04:03:01.519Z,13.00
2023-03-02T04:05:33.274Z,11.20
2023-03-02T04:08:03.556Z,11.70
2023-03-02T04:10:34.142Z,13.50
2023-03-02T04:13:04.315Z,9.50
2023-03-02T04:15:33.614Z,15.70
2023-03-02T04:18:02.263Z,11.60
2023-03-02T04:20:30.880Z,11.10
2023-03-02T04:22:59.213Z,12.70
2023-03-02T04:25:30.150Z,7.20
2023-03-02T04:28:24.766Z,12.90
2023-03-02T04:30:54.664Z,16.60
2023-03-02T04:33:22.997Z,11.70
2023-03-02T04:35:51.238Z,14.10
2023-03-02T04:38:21.037Z,15.50
2023-03-02T04:40:49.300Z,15.00
2023-03-02T04:43:17.514Z,13.30
2023-03-02T04:45:46.224Z,14.30
2023-03-02T04:48:14.420Z,17.00
2023-03-02T04:50:45.013Z,14.80
2023-03-02T04:53:13.168Z,12.40
2023-03-02T04:55:41.448Z,12.90
2023-03-02T04:58:11.380Z,15.10
2023-03-02T05:00:39.559Z,19.20
2023-03-02T05:03:07.717Z,15.80
2023-03-02T05:05:36.381Z,17.60
2023-03-02T05:08:05.041Z,14.30
2023-03-02T05:10:33.143Z,13.70
2023-03-02T05:13:06.007Z,16.10
2023-03-02T05:15:36.124Z,16.30
2023-03-02T05:18:05.679Z,18.40
2023-03-02T05:20:34.541Z,25.40
2023-03-02T05:23:07.764Z,16.50
2023-03-02T05:25:37.904Z,20.20
2023-03-02T05:28:06.861Z,18.00
2023-03-02T05:30:37.908Z,16.20
2023-03-02T05:33:06.196Z,18.90
2023-03-02T05:35:34.967Z,17.60
2023-03-02T05:38:03.298Z,13.10
2023-03-02T05:40:32.402Z,16.30
2023-03-02T05:43:00.600Z,22.00
2023-03-02T05:45:31.639Z,16.10
2023-03-02T05:48:00.544Z,18.90
2023-03-02T05:50:29.228Z,14.80
2023-03-02T05:53:00.279Z,16.70
2023-03-02T05:55:28.996Z,15.90
2023-03-02T05:57:57.224Z,22.60
2023-03-02T06:00:25.567Z,20.80
2023-03-02T06:02:55.256Z,14.70
2023-03-02T06:05:24.721Z,16.10
2023-03-02T06:07:58.936Z,19.80
2023-03-02T06:10:27.212Z,23.10
2023-03-02T06:12:55.749Z,22.50
2023-03-02T06:15:23.948Z,21.80
2023-03-02T06:17:52.251Z,23.70
2023-03-02T06:20:20.508Z,20.70
2023-03-02T06:22:49.105Z,20.90
2023-03-02T06:25:20.074Z,24.60
2023-03-02T06:27:51.764Z,19.60
2023-03-02T06:30:22.407Z,21.90
2023-03-02T06:32:50.820Z,25.10
2023-03-02T06:35:19.663Z,23.60
2023-03-02T06:37:48.358Z,22.90
2023-03-02T06:40:18.781Z,22.70
2023-03-02T06:42:47.199Z,22.80
2023-03-02T06:45:17.416Z,22.20
2023-03-02T06:47:45.667Z,23.70
2023-03-02T06:50:17.645Z,26.50
2023-03-02T06:52:46.080Z,23.50
2023-03-02T06:55:14.284Z,19.10
2023-03-02T06:57:42.765Z,21.90
2023-03-02T07:00:15.741Z,21.40
2023-03-02T07:02:45.375Z,19.20
2023-03-02T07:05:14.576Z,22.20
2023-03-02T07:07:43.981Z,23.80
2023-03-02T07:10:13.615Z,20.80
2023-03-02T07:12:42.144Z,25.50
2023-03-02T07:15:14.513Z,26.70
2023-03-02T07:17:44.183Z,24.70
2023-03-02T07:20:13.911Z,24.20
2023-03-02T07:22:44.668Z,23.50
2023-03-02T07:25:13.792Z,22.30
2023-03-02T07:27:43.442Z,15.80
2023-03-02T07:30:12.777Z,17.30
2023-03-02T07:32:41.912Z,20.50
2023-03-02T07:35:10.374Z,18.30
2023-03-02T07:37:38.793Z,20.80
2023-03-02T07:40:11.746Z,21.50
2023-03-02T07:42:40.412Z,27.90
2023-03-02T07:45:10.560Z,30.20
2023-03-02T07:47:39.259Z,21.80
2023-03-02T07:50:08.164Z,20.30
2023-03-02T07:52:37.101Z,28.80
2023-03-02T07:55:05.695Z,19.30
2023-03-02T07:57:34.127Z,19.00
2023-03-02T08:00:02.553Z,24.30
2023-03-02T08:02:40.891Z,21.60
2023-03-02T08:05:10.472Z,14.60
2023-03-02T08:07:40.707Z,15.90
2023-03-02T08:10:11.450Z,20.40
2023-03-02T08:12:39.845Z,17.50
2023-03-02T08:15:09.555Z,16.50
2023-03-02T08:17:38.601Z,19.40
2023-03-02T08:20:09.341Z,21.60
2023-03-02T08:22:37.764Z,22.00
2023-03-02T08:25:07.864Z,18.00
2023-03-02T08:27:37.264Z,19.10
2023-03-02T08:30:11.037Z,17.40
2023-03-02T08:32:40.514Z,20.00
2023-03-02T08:35:09.549Z,16.10
2023-03-02T08:37:38.840Z,14.20
2023-03-02T08:40:07.946Z,15.20
2023-03-02T08:42:36.224Z,19.50
2023-03-02T08:45:06.843Z,19.90
2023-03-02T08:47:35.742Z,14.50
2023-03-02T08:50:05.180Z,14.70
2023-03-02T08:52:34.858Z,17.30
2023-03-02T08:55:04.112Z,14.90
2023-03-02T08:57:32.622Z,16.10
2023-03-02T09:00:00.838Z,12.40
2023-03-02T09:02:29.113Z,15.90
2023-03-02T09:04:58.961Z,14.50
2023-03-02T09:07:27.802Z,14.30
2023-03-02T09:10:02.083Z,15.90
2023-03-02T09:12:30.678Z,14.10
2023-03-02T09:14:59.038Z,12.90
2023-03-02T09:17:27.128Z,17.70
2023-03-02T09:19:55.866Z,15.10
2023-03-02T09:22:24.040Z,18.60
2023-03-02T09:24:52.401Z,15.00
2023-03-02T09:27:20.672Z,16.30
2023-03-02T09:29:48.871Z,12.30
2023-03-02T09:32:17.175Z,16.50
2023-03-02T09:34:45.453Z,14.90
2023-03-02T09:37:13.589Z,18.30
2023-03-02T09:39:42.200Z,17.00
2023-03-02T09:42:18.131Z,16.40
2023-03-02T09:44:51.449Z,13.50
2023-03-02T09:47:35.162Z,19.20
2023-03-02T09:50:46.187Z,17.20
2023-03-02T09:53:38.885Z,18.10
2023-03-02T09:56:17.117Z,14.00
2023-03-02T09:59:22.400Z,16.30
2023-03-02T10:02:25.112Z,16.10
2023-03-02T10:04:54.691Z,14.80
2023-03-02T10:07:26.060Z,15.90
2023-03-02T10:09:55.298Z,15.40
2023-03-02T10:12:26.412Z,14.30
2023-03-02T10:18:11.113Z,16.00
2023-03-02T10:21:00.619Z,18.60
2023-03-02T10:23:33.168Z,13.40
2023-03-02T10:26:08.337Z,14.10
2023-03-02T10:29:01.664Z,15.00
2023-03-02T10:33:59.971Z,16.30
2023-03-02T10:36:30.337Z,15.40
2023-03-02T10:39:00.630Z,14.20
2023-03-02T10:41:33.304Z,11.00
2023-03-02T10:44:16.318Z,12.60
2023-03-02T10:46:46.373Z,10.30
2023-03-02T10:49:30.763Z,12.00
2023-03-02T10:52:15.746Z,13.80
2023-03-02T10:54:44.374Z,10.40
2023-03-02T10:57:30.885Z,13.20
2023-03-02T11:00:01.391Z,12.20
2023-03-02T11:02:37.557Z,8.50
2023-03-02T11:05:18.022Z,10.30
2023-03-02T11:08:11.591Z,11.20
2023-03-02T11:10:42.071Z,13.20
2023-03-02T11:13:28.671Z,15.70
2023-03-02T11:15:59.985Z,10.50
2023-03-02T11:18:53.095Z,12.50
2023-03-02T11:21:24.551Z,11.90
2023-03-02T11:23:58.493Z,12.20
2023-03-02T11:26:55.305Z,10.90
2023-03-02T11:29:35.838Z,10.30
2023-03-02T11:32:08.796Z,9.90
2023-03-02T11:34:44.688Z,8.70
2023-03-02T11:37:24.019Z,9.10
2023-03-02T11:40:22.807Z,9.90
2023-03-02T11:42:51.709Z,10.00
2023-03-02T11:45:23.578Z,7.40
2023-03-02T11:48:20.370Z,8.90
2023-03-02T11:50:54.442Z,7.90
2023-03-02T11:53:23.942Z,11.50
2023-03-02T11:55:52.167Z,11.50
2023-03-02T11:58:25.630Z,15.30
2023-03-02T12:00:54.360Z,9.70
2023-03-02T12:03:30.959Z,8.70
2023-03-02T12:06:08.742Z,5.80
2023-03-02T12:08:41.413Z,6.80
2023-03-02T12:11:34.505Z,9.60
2023-03-02T12:14:25.351Z,9.30
2023-03-02T12:19:53.570Z,7.40
2023-03-02T12:22:30.146Z,7.00
2023-03-02T12:25:20.236Z,10.30
2023-03-02T12:27:50.963Z,8.60
2023-03-02T12:30:26.902Z,5.60
2023-03-02T12:33:10.641Z,11.30
2023-03-02T12:35:39.249Z,6.90
2023-03-02T12:38:24.674Z,12.00
2023-03-02T12:41:17.730Z,11.60
2023-03-02T12:43:58.616Z,9.20
2023-03-02T12:46:37.361Z,8.50
2023-03-02T12:49:12.829Z,9.60
2023-03-02T12:51:49.125Z,7.80
2023-03-02T12:54:19.518Z,5.80
2023-03-02T12:56:48.064Z,7.90
2023-03-02T12:59:24.192Z,5.30
2023-03-02T13:02:25.060Z,8.70
2023-03-02T13:04:58.080Z,8.60
2023-03-02T13:07:28.627Z,10.30
2023-03-02T13:09:58.450Z,9.00
2023-03-02T13:12:28.161Z,9.30
2023-03-02T13:14:58.158Z,8.50
2023-03-02T13:17:35.327Z,8.00
2023-03-02T13:20:07.984Z,7.80
2023-03-02T13:22:36.455Z,7.80
2023-03-02T13:25:08.348Z,7.50
2023-03-02T13:27:37.644Z,8.00
2023-03-02T13:30:22.271Z,4.60
2023-03-02T13:32:51.573Z,6.60
2023-03-02T13:35:26.612Z,8.00
2023-03-02T13:38:03.131Z,8.20
2023-03-02T13:41:02.310Z,8.10
2023-03-02T13:43:34.375Z,9.00
2023-03-02T13:46:18.743Z,6.30
2023-03-02T13:49:10.735Z,5.70
2023-03-02T13:51:47.018Z,5.60
2023-03-02T13:54:25.508Z,4.10
2023-03-02T13:56:56.720Z,4.90
2023-03-02T13:59:27.324Z,5.30
2023-03-02T14:01:55.580Z,4.60
2023-03-02T14:04:24.026Z,6.40
2023-03-02T14:06:53.465Z,8.80
2023-03-02T14:09:22.062Z,5.60
2023-03-02T14:11:54.297Z,9.00
2023-03-02T14:14:24.771Z,4.90
2023-03-02T14:16:52.928Z,5.70
2023-03-02T14:19:23.092Z,4.80
2023-03-02T14:21:51.201Z,7.30
2023-03-02T14:24:22.045Z,5.80
2023-03-02T14:26:50.368Z,4.20
2023-03-02T14:29:34.827Z,5.20
2023-03-02T14:32:09.192Z,5.50
2023-03-02T14:34:37.902Z,6.60
2023-03-02T14:37:07.768Z,7.40
2023-03-02T14:39:37.793Z,5.90
2023-03-02T14:42:07.029Z,6.90
2023-03-02T14:44:35.987Z,7.90
2023-03-02T14:47:07.624Z,7.40
2023-03-02T14:49:37.373Z,9.00
2023-03-02T14:52:08.388Z,7.70
2023-03-02T14:54:43.172Z,11.00
2023-03-02T14:57:20.830Z,9.20
2023-03-02T14:59:49.166Z,5.90
2023-03-02T15:02:25.140Z,5.20
2023-03-02T15:05:14.690Z,9.40
2023-03-02T15:07:44.345Z,6.90
2023-03-02T15:10:20.195Z,5.40
2023-03-02T15:12:48.489Z,7.40
2023-03-02T15:15:16.806Z,6.20
2023-03-02T15:17:45.673Z,11.40
2023-03-02T15:20:17.063Z,6.50
2023-03-02T15:22:47.120Z,6.80
2023-03-02T15:25:15.463Z,10.10
2023-03-02T15:27:43.995Z,11.30
2023-03-02T15:30:12.492Z,9.40
2023-03-02T15:32:40.830Z,8.20
2023-03-02T15:35:09.879Z,15.50
2023-03-02T15:37:39.307Z,7.20
2023-03-02T15:40:08.512Z,11.60
2023-03-02T15:42:37.241Z,8.70
2023-03-02T15:45:05.985Z,8.80
2023-03-02T15:47:34.459Z,11.20
2023-03-02T15:50:02.580Z,8.30
2023-03-02T15:52:31.130Z,7.40
2023-03-02T15:55:00.133Z,10.50
2023-03-02T15:57:28.290Z,12.00
2023-03-02T15:59:57.039Z,10.50
2023-03-02T16:02:25.242Z,11.40
2023-03-02T16:04:58.575Z,11.00
2023-03-02T16:07:28.004Z,12.80
2023-03-02T16:09:56.122Z,11.10
2023-03-02T16:12:25.728Z,10.80
2023-03-02T16:14:58.659Z,15.80
2023-03-02T16:17:28.560Z,11.90
2023-03-02T16:19:56.892Z,14.00
2023-03-02T16:22:24.986Z,13.40
2023-03-02T16:24:53.086Z,10.80
2023-03-02T16:27:21.519Z,14.50
2023-03-02T16:29:49.631Z,12.80
2023-03-02T16:32:18.169Z,13.60
2023-03-02T16:34:46.366Z,20.00
2023-03-02T16:37:14.613Z,17.20
2023-03-02T16:39:42.838Z,17.00
2023-03-02T16:42:14.761Z,16.60
2023-03-02T16:44:44.696Z,15.90
2023-03-02T16:47:12.944Z,15.10
2023-03-02T16:49:41.103Z,12.90
2023-03-02T16:52:09.532Z,12.70
2023-03-02T16:54:38.086Z,12.00
2023-03-02T16:57:06.540Z,8.90
2023-03-02T16:59:34.765Z,10.60
2023-03-02T17:02:03.485Z,9.70
2023-03-02T17:04:34.992Z,10.70
2023-03-02T17:07:06.363Z,9.10
2023-03-02T17:09:35.297Z,11.00
2023-03-02T17:12:04.447Z,10.90
2023-03-02T17:14:32.990Z,8.50
2023-03-02T17:17:04.049Z,10.10
2023-03-02T17:19:34.636Z,9.50
2023-03-02T17:22:03.335Z,9.50
2023-03-02T17:24:35.898Z,10.60
2023-03-02T17:27:13.081Z,9.70
2023-03-02T17:29:48.618Z,7.90
2023-03-02T17:32:17.701Z,9.70
2023-03-02T17:34:47.664Z,10.20
2023-03-02T17:37:17.768Z,9.70
2023-03-02T17:39:46.161Z,9.00
2023-03-02T17:42:14.416Z,11.30
2023-03-02T17:44:43.885Z,8.70
2023-03-02T17:47:14.632Z,10.60
2023-03-02T17:49:45.929Z,15.50
2023-03-02T17:52:18.882Z,11.90
2023-03-02T17:54:47.581Z,10.60
2023-03-02T17:57:21.874Z,10.30
2023-03-02T17:59:52.941Z,10.70
2023-03-02T18:02:21.065Z,10.80
2023-03-02T18:04:49.291Z,10.10
2023-03-02T18:07:17.633Z,12.10
2023-03-02T18:09:45.900Z,11.20
2023-03-02T18:12:17.838Z,12.30
2023-03-02T18:14:46.612Z,11.00
2023-03-02T18:17:20.124Z,12.90
2023-03-02T18:19:49.095Z,11.70
2023-03-02T18:22:17.296Z,11.60
2023-03-02T18:24:45.813Z,14.50
2023-03-02T18:27:14.088Z,12.70
2023-03-02T18:29:44.259Z,16.70
2023-03-02T18:32:12.738Z,16.00
2023-03-02T18:34:41.208Z,12.90
2023-03-02T18:37:09.552Z,15.20
2023-03-02T18:39:40.615Z,17.70
2023-03-02T18:42:09.509Z,11.70
2023-03-02T18:44:38.808Z,12.80
2023-03-02T18:47:08.784Z,13.10
2023-03-02T18:49:42.749Z,12.50
2023-03-02T18:52:12.257Z,13.80
2023-03-02T18:54:44.036Z,13.10
2023-03-02T18:57:13.600Z,17.80
2023-03-02T18:59:41.925Z,16.80
2023-03-02T19:02:12.888Z,21.30
2023-03-02T19:04:41.777Z,19.60
2023-03-02T19:07:10.567Z,21.70
2023-03-02T19:09:39.038Z,22.30
2023-03-02T19:12:09.517Z,24.20
2023-03-02T19:14:39.796Z,21.10
2023-03-02T19:17:07.923Z,20.80
2023-03-02T19:19:36.371Z,21.00
2023-03-02T19:22:06.609Z,21.30
2023-03-02T19:24:35.278Z,22.90
2023-03-02T19:27:03.725Z,24.10
2023-03-02T19:29:34.427Z,23.00
2023-03-02T19:32:03.510Z,23.70
2023-03-02T19:34:31.827Z,21.90
2023-03-02T19:37:00.209Z,22.50
2023-03-02T19:39:28.354Z,23.50
2023-03-02T19:41:57.276Z,21.20
2023-03-02T19:44:25.918Z,24.50
2023-03-02T19:46:53.996Z,21.10
2023-03-02T19:49:22.113Z,21.10
2023-03-02T19:51:50.760Z,21.30
2023-03-02T19:54:19.316Z,19.10
2023-03-02T19:56:53.507Z,21.10
2023-03-02T19:59:22.334Z,19.70
2023-03-02T20:01:53.446Z,20.90
2023-03-02T20:04:25.034Z,21.20
2023-03-02T20:06:53.764Z,18.80
2023-03-02T20:09:21.927Z,21.30
2023-03-02T20:11:51.397Z,22.30
2023-03-02T20:14:32.711Z,22.40
2023-03-02T20:17:03.080Z,22.20
2023-03-02T20:19:31.786Z,24.70
2023-03-02T20:21:59.983Z,21.10
2023-03-02T20:24:32.957Z,26.50
2023-03-02T20:27:02.573Z,24.30
2023-03-02T20:29:32.173Z,23.50
2023-03-02T20:32:01.465Z,21.10
2023-03-02T20:34:30.786Z,23.60
2023-03-02T20:37:03.313Z,22.50
2023-03-02T20:39:34.494Z,26.10
2023-03-02T20:42:03.940Z,28.50
2023-03-02T20:44:34.117Z,23.70
2023-03-02T20:47:04.952Z,24.10
2023-03-02T20:49:34.125Z,23.20
2023-03-02T20:52:02.254Z,29.50
2023-03-02T20:54:33.149Z,25.80
2023-03-02T20:57:01.502Z,24.20
2023-03-02T20:59:30.646Z,24.90
2023-03-02T21:01:58.943Z,26.70
2023-03-02T21:04:27.352Z,27.30
2023-03-02T21:06:56.288Z,29.40
2023-03-02T21:09:24.488Z,25.10
2023-03-02T21:11:58.952Z,25.70
2023-03-02T21:14:28.586Z,24.20
2023-03-02T21:16:58.666Z,21.60
2023-03-02T21:19:26.861Z,22.60
2023-03-02T21:21:56.684Z,22.40
2023-03-02T21:24:25.998Z,19.30
2023-03-02T21:26:55.232Z,22.70
2023-03-02T21:29:24.953Z,24.70
2023-03-02T21:31:54.377Z,20.50
2023-03-02T21:34:23.716Z,21.00
2023-03-02T21:36:53.869Z,22.20
2023-03-02T21:39:23.738Z,24.10
2023-03-02T21:41:55.054Z,24.10
2023-03-02T21:44:24.493Z,20.70
2023-03-02T21:46:53.051Z,24.30
2023-03-02T21:49:22.287Z,22.80
2023-03-02T21:51:50.850Z,23.00
2023-03-02T21:54:19.047Z,22.80
2023-03-02T21:56:47.998Z,22.30
2023-03-02T21:59:19.956Z,19.10
2023-03-02T22:01:48.467Z,20.70
2023-03-02T22:04:17.500Z,22.60
2023-03-02T22:06:47.211Z,21.00
2023-03-02T22:09:17.794Z,23.40
2023-03-02T22:11:49.748Z,20.50
2023-03-02T22:14:21.140Z,19.60
2023-03-02T22:16:52.550Z,20.30
2023-03-02T22:19:30.972Z,20.70
2023-03-02T22:22:00.605Z,20.00
2023-03-02T22:24:42.760Z,23.80
2023-03-02T22:27:29.332Z,23.10
2023-03-02T22:30:01.717Z,21.90
2023-03-02T22:35:26.944Z,23.50
2023-03-02T22:38:04.538Z,21.00
2023-03-02T22:40:34.386Z,23.10
2023-03-02T22:43:26.317Z,20.30
2023-03-02T22:45:54.666Z,18.90
2023-03-02T22:48:25.742Z,21.10
2023-03-02T22:50:54.012Z,21.50
2023-03-02T22:53:25.384Z,19.40
2023-03-02T22:56:00.907Z,18.40
2023-03-02T22:58:37.596Z,22.80
2023-03-02T23:01:13.238Z,18.40
2023-03-02T23:03:43.962Z,21.80
2023-03-02T23:06:30.282Z,19.10
2023-03-02T23:09:01.081Z,21.00
2023-03-02T23:11:33.903Z,19.40
2023-03-02T23:14:19.344Z,23.30
2023-03-02T23:16:52.617Z,19.70
2023-03-02T23:19:21.429Z,21.00
2023-03-02T23:21:49.741Z,19.70
2023-03-02T23:24:20.830Z,23.50
2023-03-02T23:26:50.730Z,19.00
2023-03-02T23:29:38.697Z,18.50
2023-03-02T23:32:07.353Z,17.90
2023-03-02T23:34:35.943Z,19.20
2023-03-02T23:37:06.322Z,16.10
2023-03-02T23:39:35.586Z,15.50
2023-03-02T23:42:04.123Z,18.70
2023-03-02T23:44:32.273Z,18.90
2023-03-02T23:47:01.396Z,17.50
2023-03-02T23:49:31.047Z,17.60
2023-03-02T23:51:59.189Z,18.50
2023-03-02T23:54:28.483Z,20.60
2023-03-02T23:56:56.864Z,18.70
2023-03-02T23:59:27.241Z,17.90
